createdAt,value
2022-08-26T00:03:00.905Z,23.7
2022-08-26T00:08:04.341Z,23.8
2022-08-26T00:13:08.940Z,20.7
2022-08-26T00:18:16.828Z,20.1
2022-08-26T00:23:17.911Z,21.5
2022-08-26T00:28:21.596Z,22.6
2022-08-26T00:33:26.099Z,23
2022-08-26T00:38:30.528Z,22.5
2022-08-26T00:43:47.371Z,21.9
2022-08-26T00:48:38.657Z,21.5
2022-08-26T00:53:43.201Z,21.2
2022-08-26T00:58:46.741Z,21.1
2022-08-26T01:03:51.229Z,21
2022-08-26T01:08:55.800Z,20.9
2022-08-26T01:13:59.310Z,20.9
2022-08-26T01:19:03.848Z,20.9
2022-08-26T01:24:08.400Z,20.8
2022-08-26T01:29:12.952Z,20.7
2022-08-26T01:34:16.482Z,20.7
2022-08-26T01:39:21.013Z,20.7
2022-08-26T01:44:25.527Z,20.7
2022-08-26T01:49:29.101Z,20.7
2022-08-26T01:54:33.645Z,20.7
2022-08-26T01:59:38.195Z,20.6
2022-08-26T02:04:41.836Z,20.7
2022-08-26T02:09:46.239Z,20.5
2022-08-26T02:14:51.201Z,20.5
2022-08-26T02:19:54.345Z,20.5
2022-08-26T02:24:58.863Z,20.4
2022-08-26T02:30:03.409Z,20.4
2022-08-26T02:35:07.922Z,20.4
2022-08-26T02:40:11.576Z,20.3
2022-08-26T02:45:16.745Z,20.2
2022-08-26T02:50:20.562Z,20
2022-08-26T02:55:24.624Z,20
2022-08-26T03:00:27.707Z,19.9
2022-08-26T03:05:32.232Z,20
2022-08-26T03:10:36.731Z,19.9
2022-08-26T03:15:41.236Z,20
2022-08-26T03:20:44.834Z,20.1
2022-08-26T03:25:49.339Z,20.1
2022-08-26T03:30:54.046Z,20.2
2022-08-26T03:35:57.461Z,20.3
2022-08-26T03:41:01.983Z,20.3
2022-08-26T03:46:06.611Z,20.3
2022-08-26T03:51:10.059Z,20.2
2022-08-26T03:56:14.593Z,20.1
2022-08-26T04:01:19.160Z,20.2
2022-08-26T04:06:22.669Z,20.3
2022-08-26T04:11:27.212Z,20.2
2022-08-26T04:16:31.788Z,20.3
2022-08-26T04:21:36.284Z,20.4
2022-08-26T04:26:43.647Z,20.3
2022-08-26T04:31:44.387Z,20.3
2022-08-26T04:36:48.900Z,20.3
2022-08-26T04:41:52.494Z,20.3
2022-08-26T04:46:56.982Z,20.4
2022-08-26T04:52:01.529Z,20.4
2022-08-26T04:57:05.075Z,20.3
2022-08-26T05:02:09.654Z,20.4
2022-08-26T05:07:14.132Z,20.4
2022-08-26T05:12:17.710Z,20.5
2022-08-26T05:17:22.243Z,20.4
2022-08-26T05:22:26.755Z,20.5
2022-08-26T05:27:31.268Z,20.7
2022-08-26T05:32:34.836Z,20.9
2022-08-26T05:37:39.381Z,21
2022-08-26T05:42:43.890Z,21.2
2022-08-26T05:47:47.449Z,21.1
2022-08-26T05:52:52.008Z,20.9
2022-08-26T05:57:56.527Z,21.2
2022-08-26T06:03:00.181Z,21.1
2022-08-26T06:08:04.619Z,21.2
2022-08-26T06:13:11.843Z,21.2
2022-08-26T06:18:12.708Z,21.1
2022-08-26T06:23:17.200Z,21.1
2022-08-26T06:28:21.737Z,21.3
2022-08-26T06:33:26.281Z,21.4
2022-08-26T06:38:29.815Z,21.6
2022-08-26T06:43:34.375Z,21.4
2022-08-26T06:48:38.894Z,21.7
2022-08-26T06:53:42.441Z,21.5
2022-08-26T06:58:46.982Z,21.5
2022-08-26T07:03:51.508Z,21.6
2022-08-26T07:08:55.051Z,21.5
2022-08-26T07:13:59.571Z,21.6
2022-08-26T07:19:03.382Z,21.8
2022-08-26T07:24:07.662Z,21.6
2022-08-26T07:29:12.210Z,21.8
2022-08-26T07:34:15.785Z,22.1
2022-08-26T07:39:20.420Z,21.9
2022-08-26T07:44:24.817Z,21.7
2022-08-26T07:49:28.405Z,21.8
2022-08-26T07:54:32.903Z,22
2022-08-26T07:59:37.458Z,21.9
2022-08-26T08:04:41.021Z,21.9
2022-08-26T08:09:45.581Z,22.3
2022-08-26T08:14:50.042Z,22.3
2022-08-26T08:19:54.581Z,22.1
2022-08-26T08:24:58.125Z,22
2022-08-26T08:30:02.733Z,21.7
2022-08-26T08:35:11.587Z,21.9
2022-08-26T08:40:10.808Z,22
2022-08-26T08:45:15.286Z,21.9
2022-08-26T08:50:19.812Z,22
2022-08-26T08:55:23.399Z,22.1
2022-08-26T09:00:30.213Z,21.9
2022-08-26T09:05:35.645Z,21.9
2022-08-26T09:10:36.017Z,22.1
2022-08-26T09:15:40.527Z,22
2022-08-26T09:20:45.411Z,22.1
2022-08-26T09:25:49.641Z,22.4
2022-08-26T09:30:53.257Z,22.6
2022-08-26T09:35:57.675Z,22.6
2022-08-26T09:41:02.239Z,22.9
2022-08-26T09:46:05.795Z,23
2022-08-26T09:51:10.320Z,22.5
2022-08-26T09:56:14.863Z,22.6
2022-08-26T10:01:18.394Z,23
2022-08-26T10:06:22.912Z,23.1
2022-08-26T10:11:27.443Z,22.8
2022-08-26T10:16:31.055Z,22.8
2022-08-26T10:21:35.533Z,22.6
2022-08-26T10:26:40.073Z,22.8
2022-08-26T10:31:44.717Z,22.6
2022-08-26T10:37:10.573Z,22.2
2022-08-26T10:41:52.721Z,22.6
2022-08-26T10:46:57.245Z,22
2022-08-26T10:52:00.800Z,22.4
2022-08-26T10:57:05.316Z,22.8
2022-08-26T11:02:09.909Z,22.6
2022-08-26T11:07:13.423Z,22.5
2022-08-26T11:12:17.979Z,22.5
2022-08-26T11:17:22.481Z,22.6
2022-08-26T11:22:26.052Z,22.8
2022-08-26T11:27:30.558Z,23.3
2022-08-26T11:32:34.102Z,23.2
2022-08-26T11:37:40.616Z,23.3
2022-08-26T11:42:43.213Z,23.5
2022-08-26T11:47:46.717Z,23.7
2022-08-26T11:52:51.281Z,23.7
2022-08-26T11:57:55.833Z,24.2
2022-08-26T12:02:59.349Z,23.9
2022-08-26T12:08:03.971Z,24.8
2022-08-26T12:13:08.437Z,23.6
2022-08-26T12:18:12.971Z,23.8
2022-08-26T12:23:16.533Z,24.1
2022-08-26T12:28:21.021Z,24.1
2022-08-26T12:33:25.631Z,24
2022-08-26T12:38:29.190Z,23.7
2022-08-26T12:43:33.668Z,23.9
2022-08-26T12:48:38.221Z,24.5
2022-08-26T12:53:41.762Z,24.5
2022-08-26T12:58:46.351Z,24.5
2022-08-26T13:03:50.829Z,24.3
2022-08-26T13:08:54.416Z,24.6
2022-08-26T13:13:58.948Z,25.5
2022-08-26T13:19:03.415Z,25.4
2022-08-26T13:24:08.013Z,24.8
2022-08-26T13:29:11.603Z,24.7
2022-08-26T13:34:16.065Z,24.7
2022-08-26T13:39:20.625Z,24.8
2022-08-26T13:44:24.162Z,24.9
2022-08-26T13:49:28.730Z,24.7
2022-08-26T13:54:33.230Z,24.4
2022-08-26T13:59:36.776Z,24.2
2022-08-26T14:04:41.331Z,24.2
2022-08-26T14:09:45.815Z,24.4
2022-08-26T14:14:49.369Z,24.2
2022-08-26T14:19:53.945Z,23.8
2022-08-26T14:24:58.452Z,23.7
2022-08-26T14:30:02.990Z,24.1
2022-08-26T14:35:06.520Z,23.9
2022-08-26T14:40:11.064Z,24
2022-08-26T14:45:15.586Z,23.9
2022-08-26T14:50:19.185Z,23.9
2022-08-26T14:55:23.665Z,24.2
2022-08-26T15:00:28.218Z,23.9
2022-08-26T15:05:31.783Z,23.8
2022-08-26T15:10:36.285Z,23.6
2022-08-26T15:15:40.911Z,23.7
2022-08-26T15:20:44.398Z,23.7
2022-08-26T15:25:48.928Z,23.8
2022-08-26T15:30:53.575Z,23.6
2022-08-26T15:35:58.002Z,23.6
2022-08-26T15:41:03.234Z,23.6
2022-08-26T15:46:05.192Z,23.5
2022-08-26T15:51:09.620Z,23.3
2022-08-26T15:56:14.168Z,23.4
2022-08-26T16:01:23.956Z,23.3
2022-08-26T16:06:22.327Z,23.3
2022-08-26T16:11:26.782Z,23.3
2022-08-26T16:16:31.439Z,23.1
2022-08-26T16:21:34.884Z,23.2
2022-08-26T16:26:39.395Z,23.2
2022-08-26T16:31:43.997Z,23
2022-08-26T16:36:47.525Z,23
2022-08-26T16:41:52.030Z,23.2
2022-08-26T16:46:58.628Z,23.2
2022-08-26T16:52:00.124Z,23.1
2022-08-26T16:57:04.651Z,23.1
2022-08-26T17:02:09.190Z,23.1
2022-08-26T17:07:12.750Z,23
2022-08-26T17:12:17.301Z,22.9
2022-08-26T17:17:21.834Z,22.7
2022-08-26T17:22:26.348Z,22.6
2022-08-26T17:27:29.871Z,22.6
2022-08-26T17:32:34.443Z,22.6
2022-08-26T17:37:38.966Z,22.5
2022-08-26T17:42:42.538Z,22.6
2022-08-26T17:47:47.073Z,22.5
2022-08-26T17:52:51.594Z,22.4
2022-08-26T17:57:55.149Z,22.4
2022-08-26T18:02:59.625Z,22.3
2022-08-26T18:08:04.205Z,22.1
2022-08-26T18:13:07.868Z,22.1
2022-08-26T18:18:12.259Z,22
2022-08-26T18:23:16.795Z,22
2022-08-26T18:28:21.339Z,21.8
2022-08-26T18:33:24.891Z,21.8
2022-08-26T18:38:29.417Z,21.8
2022-08-26T18:43:33.960Z,21.7
2022-08-26T18:48:37.502Z,21.7
2022-08-26T18:53:42.024Z,21.7
2022-08-26T18:58:46.576Z,21.8
2022-08-26T19:03:50.104Z,21.7
2022-08-26T19:08:54.684Z,21.6
2022-08-26T19:13:59.180Z,21.5
2022-08-26T19:19:02.701Z,21.5
2022-08-26T19:24:07.267Z,21.5
2022-08-26T19:29:11.857Z,21.6
2022-08-26T19:34:16.318Z,21.4
2022-08-26T19:39:19.898Z,21.3
2022-08-26T19:44:24.423Z,21.3
2022-08-26T19:49:28.928Z,21.3
2022-08-26T19:54:32.515Z,21.3
2022-08-26T19:59:36.034Z,21.2
2022-08-26T20:04:40.555Z,21.2
2022-08-26T20:09:45.110Z,21.1
2022-08-26T20:14:49.617Z,21.2
2022-08-26T20:19:53.190Z,21.1
2022-08-26T20:24:57.741Z,21
2022-08-26T20:30:02.240Z,21.1
2022-08-26T20:35:05.830Z,21
2022-08-26T20:40:10.398Z,20.9
2022-08-26T20:45:14.896Z,21
2022-08-26T20:50:18.433Z,20.9
2022-08-26T20:55:22.941Z,20.8
2022-08-26T21:00:28.882Z,20.8
2022-08-26T21:05:31.059Z,20.6
2022-08-26T21:10:35.577Z,20.5
2022-08-26T21:15:40.089Z,20.5
2022-08-26T21:20:44.690Z,20.5
2022-08-26T21:25:48.214Z,20.5
2022-08-26T21:30:52.695Z,20.4
2022-08-26T21:35:57.294Z,20.5
2022-08-26T21:41:00.808Z,20.5
2022-08-26T21:46:05.425Z,20.5
2022-08-26T21:51:09.856Z,20.4
2022-08-26T21:56:13.443Z,20.4
2022-08-26T22:01:18.006Z,20.4
2022-08-26T22:06:22.494Z,20.3
2022-08-26T22:11:26.048Z,20.2
2022-08-26T22:16:30.668Z,20.2
2022-08-26T22:21:35.118Z,20.1
2022-08-26T22:26:39.626Z,20.3
2022-08-26T22:31:43.267Z,20.3
2022-08-26T22:36:47.724Z,20.1
2022-08-26T22:41:52.263Z,19.9
2022-08-26T22:46:55.822Z,19.9
2022-08-26T22:52:00.383Z,19.7
2022-08-26T22:57:04.949Z,19.8
2022-08-26T23:02:08.447Z,19.7
2022-08-26T23:07:12.962Z,19.6
2022-08-26T23:12:17.534Z,19.6
2022-08-26T23:17:21.047Z,19.6
2022-08-26T23:22:25.600Z,19.6
2022-08-26T23:27:30.109Z,19.6
2022-08-26T23:32:34.673Z,19.6
2022-08-26T23:37:39.329Z,19.5
2022-08-26T23:42:43.833Z,19.7
2022-08-26T23:47:48.694Z,19.8
2022-08-26T23:52:51.981Z,19.7
2022-08-26T23:57:56.469Z,19.7
